sensor_id;sensor_type;location;lat;lon;timestamp;P1;durP1;ratioP1;P2;durP2;ratioP2
47259;SDS011;32999;52.412;4.890;2022-10-14T00:04:40;108.60;;;40.97;;
47259;SDS011;32999;52.412;4.890;2022-10-14T00:09:44;80.32;;;36.85;;
47259;SDS011;32999;52.412;4.890;2022-10-14T00:14:45;91.80;;;39.67;;
47259;SDS011;32999;52.412;4.890;2022-10-14T00:19:47;107.03;;;38.38;;
47259;SDS011;32999;52.412;4.890;2022-10-14T00:24:51;68.10;;;33.13;;
47259;SDS011;32999;52.412;4.890;2022-10-14T00:29:53;132.38;;;39.78;;
47259;SDS011;32999;52.412;4.890;2022-10-14T00:34:56;57.95;;;31.50;;
47259;SDS011;32999;52.412;4.890;2022-10-14T00:39:59;71.80;;;30.45;;
47259;SDS011;32999;52.412;4.890;2022-10-14T00:45:06;49.50;;;28.50;;
47259;SDS011;32999;52.412;4.890;2022-10-14T00:50:12;58.20;;;29.60;;
47259;SDS011;32999;52.412;4.890;2022-10-14T00:55:17;72.07;;;32.00;;
47259;SDS011;32999;52.412;4.890;2022-10-14T01:00:20;62.42;;;31.77;;
47259;SDS011;32999;52.412;4.890;2022-10-14T01:05:22;69.53;;;33.38;;
47259;SDS011;32999;52.412;4.890;2022-10-14T01:10:35;59.40;;;31.50;;
47259;SDS011;32999;52.412;4.890;2022-10-14T01:15:50;67.85;;;32.40;;
47259;SDS011;32999;52.412;4.890;2022-10-14T01:21:14;101.75;;;34.35;;
47259;SDS011;32999;52.412;4.890;2022-10-14T01:26:25;130.10;;;41.08;;
47259;SDS011;32999;52.412;4.890;2022-10-14T01:31:46;96.65;;;35.47;;
47259;SDS011;32999;52.412;4.890;2022-10-14T01:36:55;262.67;;;51.00;;
47259;SDS011;32999;52.412;4.890;2022-10-14T01:42:02;91.43;;;35.22;;
47259;SDS011;32999;52.412;4.890;2022-10-14T01:47:07;149.65;;;44.80;;
47259;SDS011;32999;52.412;4.890;2022-10-14T01:52:14;141.27;;;42.78;;
47259;SDS011;32999;52.412;4.890;2022-10-14T01:57:19;153.70;;;45.70;;
47259;SDS011;32999;52.412;4.890;2022-10-14T02:02:25;96.15;;;40.92;;
47259;SDS011;32999;52.412;4.890;2022-10-14T02:07:28;141.35;;;47.35;;
47259;SDS011;32999;52.412;4.890;2022-10-14T02:12:33;142.27;;;47.38;;
47259;SDS011;32999;52.412;4.890;2022-10-14T02:17:47;126.25;;;45.88;;
47259;SDS011;32999;52.412;4.890;2022-10-14T02:22:55;157.00;;;49.33;;
47259;SDS011;32999;52.412;4.890;2022-10-14T02:28:01;133.48;;;49.90;;
47259;SDS011;32999;52.412;4.890;2022-10-14T02:33:08;117.22;;;46.58;;
47259;SDS011;32999;52.412;4.890;2022-10-14T02:38:10;140.52;;;52.13;;
47259;SDS011;32999;52.412;4.890;2022-10-14T02:43:12;146.38;;;52.72;;
47259;SDS011;32999;52.412;4.890;2022-10-14T02:48:15;125.10;;;47.75;;
47259;SDS011;32999;52.412;4.890;2022-10-14T02:53:17;166.67;;;53.50;;
47259;SDS011;32999;52.412;4.890;2022-10-14T02:58:19;146.35;;;50.20;;
47259;SDS011;32999;52.412;4.890;2022-10-14T03:03:26;137.60;;;51.03;;
47259;SDS011;32999;52.412;4.890;2022-10-14T03:08:27;131.55;;;49.50;;
47259;SDS011;32999;52.412;4.890;2022-10-14T03:13:29;131.93;;;49.45;;
47259;SDS011;32999;52.412;4.890;2022-10-14T03:18:32;161.45;;;53.15;;
47259;SDS011;32999;52.412;4.890;2022-10-14T03:23:35;139.45;;;49.60;;
47259;SDS011;32999;52.412;4.890;2022-10-14T03:28:36;143.30;;;51.13;;
47259;SDS011;32999;52.412;4.890;2022-10-14T03:33:40;246.55;;;61.88;;
47259;SDS011;32999;52.412;4.890;2022-10-14T03:38:42;173.20;;;50.65;;
47259;SDS011;32999;52.412;4.890;2022-10-14T03:43:44;171.45;;;56.38;;
47259;SDS011;32999;52.412;4.890;2022-10-14T03:48:47;194.55;;;56.17;;
47259;SDS011;32999;52.412;4.890;2022-10-14T03:53:48;249.10;;;60.63;;
47259;SDS011;32999;52.412;4.890;2022-10-14T03:58:50;208.70;;;56.50;;
47259;SDS011;32999;52.412;4.890;2022-10-14T04:03:53;160.57;;;53.45;;
47259;SDS011;32999;52.412;4.890;2022-10-14T04:08:55;205.30;;;55.85;;
47259;SDS011;32999;52.412;4.890;2022-10-14T04:13:57;245.48;;;59.67;;
47259;SDS011;32999;52.412;4.890;2022-10-14T04:19:00;149.85;;;50.42;;
47259;SDS011;32999;52.412;4.890;2022-10-14T04:24:02;188.82;;;52.45;;
47259;SDS011;32999;52.412;4.890;2022-10-14T04:29:04;146.52;;;47.63;;
47259;SDS011;32999;52.412;4.890;2022-10-14T04:34:08;141.05;;;46.47;;
47259;SDS011;32999;52.412;4.890;2022-10-14T04:39:10;172.10;;;48.33;;
47259;SDS011;32999;52.412;4.890;2022-10-14T04:44:12;167.23;;;46.40;;
47259;SDS011;32999;52.412;4.890;2022-10-14T04:49:15;130.82;;;42.88;;
47259;SDS011;32999;52.412;4.890;2022-10-14T04:54:16;141.80;;;43.80;;
47259;SDS011;32999;52.412;4.890;2022-10-14T04:59:18;226.50;;;46.97;;
47259;SDS011;32999;52.412;4.890;2022-10-14T05:04:21;207.85;;;49.47;;
47259;SDS011;32999;52.412;4.890;2022-10-14T05:09:23;191.27;;;45.53;;
47259;SDS011;32999;52.412;4.890;2022-10-14T05:14:25;235.00;;;49.13;;
47259;SDS011;32999;52.412;4.890;2022-10-14T05:19:28;126.00;;;38.20;;
47259;SDS011;32999;52.412;4.890;2022-10-14T05:24:30;143.25;;;40.42;;
47259;SDS011;32999;52.412;4.890;2022-10-14T05:29:31;177.95;;;40.55;;
47259;SDS011;32999;52.412;4.890;2022-10-14T05:34:34;130.00;;;37.40;;
47259;SDS011;32999;52.412;4.890;2022-10-14T05:39:36;226.60;;;45.83;;
47259;SDS011;32999;52.412;4.890;2022-10-14T05:44:38;149.23;;;40.75;;
47259;SDS011;32999;52.412;4.890;2022-10-14T05:49:41;172.40;;;43.28;;
47259;SDS011;32999;52.412;4.890;2022-10-14T05:54:43;124.15;;;38.80;;
47259;SDS011;32999;52.412;4.890;2022-10-14T05:59:45;239.75;;;48.28;;
47259;SDS011;32999;52.412;4.890;2022-10-14T06:04:48;199.93;;;45.58;;
47259;SDS011;32999;52.412;4.890;2022-10-14T06:09:50;223.45;;;45.13;;
47259;SDS011;32999;52.412;4.890;2022-10-14T06:14:51;190.43;;;41.85;;
47259;SDS011;32999;52.412;4.890;2022-10-14T06:19:54;162.68;;;38.58;;
47259;SDS011;32999;52.412;4.890;2022-10-14T06:24:56;130.95;;;35.63;;
47259;SDS011;32999;52.412;4.890;2022-10-14T06:29:58;168.23;;;37.13;;
47259;SDS011;32999;52.412;4.890;2022-10-14T06:35:01;121.00;;;30.80;;
47259;SDS011;32999;52.412;4.890;2022-10-14T06:40:03;113.65;;;29.67;;
47259;SDS011;32999;52.412;4.890;2022-10-14T06:45:06;126.63;;;29.77;;
47259;SDS011;32999;52.412;4.890;2022-10-14T06:50:09;97.47;;;27.38;;
47259;SDS011;32999;52.412;4.890;2022-10-14T06:55:11;73.93;;;24.70;;
47259;SDS011;32999;52.412;4.890;2022-10-14T07:00:13;76.53;;;24.30;;
47259;SDS011;32999;52.412;4.890;2022-10-14T07:05:17;83.63;;;22.48;;
47259;SDS011;32999;52.412;4.890;2022-10-14T07:10:19;75.30;;;22.08;;
47259;SDS011;32999;52.412;4.890;2022-10-14T07:15:21;54.47;;;18.02;;
47259;SDS011;32999;52.412;4.890;2022-10-14T07:20:24;68.90;;;21.08;;
47259;SDS011;32999;52.412;4.890;2022-10-14T07:25:26;83.38;;;22.02;;
47259;SDS011;32999;52.412;4.890;2022-10-14T07:30:28;60.03;;;19.75;;
47259;SDS011;32999;52.412;4.890;2022-10-14T07:35:31;48.05;;;17.23;;
47259;SDS011;32999;52.412;4.890;2022-10-14T07:40:33;80.57;;;21.52;;
47259;SDS011;32999;52.412;4.890;2022-10-14T07:45:38;49.20;;;17.63;;
47259;SDS011;32999;52.412;4.890;2022-10-14T07:50:49;91.53;;;23.38;;
47259;SDS011;32999;52.412;4.890;2022-10-14T07:55:51;69.85;;;21.33;;
47259;SDS011;32999;52.412;4.890;2022-10-14T08:00:53;66.95;;;20.92;;
47259;SDS011;32999;52.412;4.890;2022-10-14T08:05:58;42.07;;;17.23;;
47259;SDS011;32999;52.412;4.890;2022-10-14T08:11:01;50.13;;;16.25;;
47259;SDS011;32999;52.412;4.890;2022-10-14T08:16:10;91.05;;;22.85;;
47259;SDS011;32999;52.412;4.890;2022-10-14T08:21:16;39.28;;;17.92;;
47259;SDS011;32999;52.412;4.890;2022-10-14T08:26:19;56.45;;;18.92;;
47259;SDS011;32999;52.412;4.890;2022-10-14T08:31:22;53.55;;;17.65;;
47259;SDS011;32999;52.412;4.890;2022-10-14T08:36:25;40.05;;;16.15;;
47259;SDS011;32999;52.412;4.890;2022-10-14T08:41:34;64.80;;;19.08;;
47259;SDS011;32999;52.412;4.890;2022-10-14T08:46:46;44.17;;;16.52;;
47259;SDS011;32999;52.412;4.890;2022-10-14T08:51:54;59.65;;;20.65;;
47259;SDS011;32999;52.412;4.890;2022-10-14T08:56:58;68.20;;;20.90;;
47259;SDS011;32999;52.412;4.890;2022-10-14T09:02:07;74.50;;;22.60;;
47259;SDS011;32999;52.412;4.890;2022-10-14T09:07:28;68.70;;;22.23;;
47259;SDS011;32999;52.412;4.890;2022-10-14T09:12:32;102.35;;;25.98;;
47259;SDS011;32999;52.412;4.890;2022-10-14T09:17:37;79.80;;;26.45;;
47259;SDS011;32999;52.412;4.890;2022-10-14T09:22:44;91.88;;;27.40;;
47259;SDS011;32999;52.412;4.890;2022-10-14T09:27:57;84.23;;;25.03;;
47259;SDS011;32999;52.412;4.890;2022-10-14T09:32:58;98.10;;;30.70;;
47259;SDS011;32999;52.412;4.890;2022-10-14T09:38:02;128.57;;;33.22;;
47259;SDS011;32999;52.412;4.890;2022-10-14T09:43:04;140.67;;;36.37;;
47259;SDS011;32999;52.412;4.890;2022-10-14T09:48:16;81.13;;;27.85;;
47259;SDS011;32999;52.412;4.890;2022-10-14T09:53:24;73.55;;;25.35;;
47259;SDS011;32999;52.412;4.890;2022-10-14T09:58:30;52.80;;;21.80;;
47259;SDS011;32999;52.412;4.890;2022-10-14T10:03:35;78.03;;;24.77;;
47259;SDS011;32999;52.412;4.890;2022-10-14T10:08:53;72.30;;;22.45;;
47259;SDS011;32999;52.412;4.890;2022-10-14T10:13:56;69.40;;;19.95;;
47259;SDS011;32999;52.412;4.890;2022-10-14T10:18:57;47.40;;;15.20;;
47259;SDS011;32999;52.412;4.890;2022-10-14T10:24:28;44.40;;;14.40;;
47259;SDS011;32999;52.412;4.890;2022-10-14T10:29:31;37.70;;;12.93;;
47259;SDS011;32999;52.412;4.890;2022-10-14T10:45:34;33.70;;;14.15;;
47259;SDS011;32999;52.412;4.890;2022-10-14T10:50:46;44.20;;;14.57;;
47259;SDS011;32999;52.412;4.890;2022-10-14T10:55:56;34.80;;;15.75;;
47259;SDS011;32999;52.412;4.890;2022-10-14T11:01:10;48.95;;;18.58;;
47259;SDS011;32999;52.412;4.890;2022-10-14T11:06:36;57.50;;;21.58;;
47259;SDS011;32999;52.412;4.890;2022-10-14T11:12:05;52.92;;;21.60;;
47259;SDS011;32999;52.412;4.890;2022-10-14T11:17:16;75.23;;;22.77;;
47259;SDS011;32999;52.412;4.890;2022-10-14T11:22:40;50.00;;;19.35;;
47259;SDS011;32999;52.412;4.890;2022-10-14T11:28:09;44.72;;;18.33;;
47259;SDS011;32999;52.412;4.890;2022-10-14T11:33:22;51.10;;;18.48;;
47259;SDS011;32999;52.412;4.890;2022-10-14T11:38:38;30.42;;;14.93;;
47259;SDS011;32999;52.412;4.890;2022-10-14T11:43:56;32.92;;;16.42;;
47259;SDS011;32999;52.412;4.890;2022-10-14T11:49:09;36.45;;;16.63;;
47259;SDS011;32999;52.412;4.890;2022-10-14T11:54:21;27.60;;;15.43;;
47259;SDS011;32999;52.412;4.890;2022-10-14T11:59:33;43.42;;;17.98;;
47259;SDS011;32999;52.412;4.890;2022-10-14T12:04:39;28.30;;;16.45;;
47259;SDS011;32999;52.412;4.890;2022-10-14T12:09:47;40.60;;;18.85;;
47259;SDS011;32999;52.412;4.890;2022-10-14T12:14:54;35.33;;;17.75;;
47259;SDS011;32999;52.412;4.890;2022-10-14T12:20:00;27.98;;;17.70;;
47259;SDS011;32999;52.412;4.890;2022-10-14T12:25:09;24.27;;;17.10;;
47259;SDS011;32999;52.412;4.890;2022-10-14T12:30:34;24.05;;;14.98;;
47259;SDS011;32999;52.412;4.890;2022-10-14T12:35:45;17.45;;;12.57;;
47259;SDS011;32999;52.412;4.890;2022-10-14T12:40:49;16.08;;;12.52;;
47259;SDS011;32999;52.412;4.890;2022-10-14T12:46:11;19.98;;;14.10;;
47259;SDS011;32999;52.412;4.890;2022-10-14T12:51:15;25.97;;;14.23;;
47259;SDS011;32999;52.412;4.890;2022-10-14T12:56:27;17.40;;;12.27;;
47259;SDS011;32999;52.412;4.890;2022-10-14T13:01:32;11.43;;;9.50;;
47259;SDS011;32999;52.412;4.890;2022-10-14T13:06:36;14.57;;;10.40;;
47259;SDS011;32999;52.412;4.890;2022-10-14T13:11:39;18.42;;;10.75;;
47259;SDS011;32999;52.412;4.890;2022-10-14T13:22:34;22.05;;;12.27;;
47259;SDS011;32999;52.412;4.890;2022-10-14T13:27:46;20.05;;;12.77;;
47259;SDS011;32999;52.412;4.890;2022-10-14T13:33:00;9.07;;;5.70;;
47259;SDS011;32999;52.412;4.890;2022-10-14T13:38:11;4.85;;;3.80;;
47259;SDS011;32999;52.412;4.890;2022-10-14T13:48:21;12.73;;;5.57;;
47259;SDS011;32999;52.412;4.890;2022-10-14T13:53:29;9.63;;;5.10;;
47259;SDS011;32999;52.412;4.890;2022-10-14T13:58:31;5.45;;;4.38;;
47259;SDS011;32999;52.412;4.890;2022-10-14T14:03:35;10.65;;;5.70;;
47259;SDS011;32999;52.412;4.890;2022-10-14T14:08:42;13.38;;;6.65;;
47259;SDS011;32999;52.412;4.890;2022-10-14T14:13:55;10.88;;;5.68;;
47259;SDS011;32999;52.412;4.890;2022-10-14T14:19:00;8.95;;;4.05;;
47259;SDS011;32999;52.412;4.890;2022-10-14T14:24:09;7.75;;;4.05;;
47259;SDS011;32999;52.412;4.890;2022-10-14T14:29:17;10.75;;;4.15;;
47259;SDS011;32999;52.412;4.890;2022-10-14T14:34:21;8.57;;;5.00;;
47259;SDS011;32999;52.412;4.890;2022-10-14T14:39:25;8.27;;;4.18;;
47259;SDS011;32999;52.412;4.890;2022-10-14T14:49:34;16.10;;;5.93;;
47259;SDS011;32999;52.412;4.890;2022-10-14T14:54:42;11.70;;;5.53;;
47259;SDS011;32999;52.412;4.890;2022-10-14T14:59:47;13.35;;;5.88;;
47259;SDS011;32999;52.412;4.890;2022-10-14T15:05:00;14.32;;;6.95;;
47259;SDS011;32999;52.412;4.890;2022-10-14T15:10:05;11.48;;;6.65;;
47259;SDS011;32999;52.412;4.890;2022-10-14T15:15:21;8.95;;;6.65;;
47259;SDS011;32999;52.412;4.890;2022-10-14T15:20:28;9.43;;;5.15;;
47259;SDS011;32999;52.412;4.890;2022-10-14T15:25:31;10.10;;;5.53;;
47259;SDS011;32999;52.412;4.890;2022-10-14T15:30:33;13.20;;;5.15;;
47259;SDS011;32999;52.412;4.890;2022-10-14T15:35:55;10.93;;;4.90;;
47259;SDS011;32999;52.412;4.890;2022-10-14T15:40:59;9.75;;;6.68;;
47259;SDS011;32999;52.412;4.890;2022-10-14T15:46:04;11.82;;;6.38;;
47259;SDS011;32999;52.412;4.890;2022-10-14T15:51:24;13.88;;;5.75;;
47259;SDS011;32999;52.412;4.890;2022-10-14T15:56:30;15.95;;;5.95;;
47259;SDS011;32999;52.412;4.890;2022-10-14T16:01:32;14.60;;;6.13;;
47259;SDS011;32999;52.412;4.890;2022-10-14T16:06:38;7.85;;;4.65;;
47259;SDS011;32999;52.412;4.890;2022-10-14T16:11:40;13.82;;;5.88;;
47259;SDS011;32999;52.412;4.890;2022-10-14T16:16:43;16.92;;;8.98;;
47259;SDS011;32999;52.412;4.890;2022-10-14T16:21:47;17.27;;;9.60;;
47259;SDS011;32999;52.412;4.890;2022-10-14T16:26:49;22.08;;;11.43;;
47259;SDS011;32999;52.412;4.890;2022-10-14T16:31:51;19.17;;;11.45;;
47259;SDS011;32999;52.412;4.890;2022-10-14T16:37:09;17.90;;;8.88;;
47259;SDS011;32999;52.412;4.890;2022-10-14T16:42:10;17.67;;;10.90;;
47259;SDS011;32999;52.412;4.890;2022-10-14T16:47:12;26.20;;;16.52;;
47259;SDS011;32999;52.412;4.890;2022-10-14T16:52:19;17.67;;;14.38;;
47259;SDS011;32999;52.412;4.890;2022-10-14T16:57:21;16.92;;;11.55;;
47259;SDS011;32999;52.412;4.890;2022-10-14T17:02:24;14.30;;;7.90;;
47259;SDS011;32999;52.412;4.890;2022-10-14T17:07:32;10.23;;;6.57;;
47259;SDS011;32999;52.412;4.890;2022-10-14T17:12:34;12.60;;;6.97;;
47259;SDS011;32999;52.412;4.890;2022-10-14T17:17:36;10.50;;;6.82;;
47259;SDS011;32999;52.412;4.890;2022-10-14T17:22:40;11.65;;;7.22;;
47259;SDS011;32999;52.412;4.890;2022-10-14T17:27:42;13.10;;;7.20;;
47259;SDS011;32999;52.412;4.890;2022-10-14T17:32:44;10.10;;;7.38;;
47259;SDS011;32999;52.412;4.890;2022-10-14T17:37:47;16.35;;;8.32;;
47259;SDS011;32999;52.412;4.890;2022-10-14T17:42:48;18.25;;;10.02;;
47259;SDS011;32999;52.412;4.890;2022-10-14T17:47:52;14.90;;;9.45;;
47259;SDS011;32999;52.412;4.890;2022-10-14T17:52:55;18.35;;;8.43;;
47259;SDS011;32999;52.412;4.890;2022-10-14T17:57:58;16.60;;;7.97;;
47259;SDS011;32999;52.412;4.890;2022-10-14T18:02:59;12.93;;;7.32;;
47259;SDS011;32999;52.412;4.890;2022-10-14T18:08:02;11.93;;;6.28;;
47259;SDS011;32999;52.412;4.890;2022-10-14T18:13:04;11.35;;;6.38;;
47259;SDS011;32999;52.412;4.890;2022-10-14T18:18:06;15.93;;;7.75;;
47259;SDS011;32999;52.412;4.890;2022-10-14T18:23:10;12.40;;;6.78;;
47259;SDS011;32999;52.412;4.890;2022-10-14T18:28:12;13.40;;;7.77;;
47259;SDS011;32999;52.412;4.890;2022-10-14T18:33:13;11.93;;;7.28;;
47259;SDS011;32999;52.412;4.890;2022-10-14T18:38:17;11.32;;;7.65;;
47259;SDS011;32999;52.412;4.890;2022-10-14T18:43:18;12.15;;;8.10;;
47259;SDS011;32999;52.412;4.890;2022-10-14T18:48:20;18.38;;;9.05;;
47259;SDS011;32999;52.412;4.890;2022-10-14T18:53:24;15.32;;;10.70;;
47259;SDS011;32999;52.412;4.890;2022-10-14T18:58:26;16.10;;;10.40;;
47259;SDS011;32999;52.412;4.890;2022-10-14T19:03:27;14.25;;;10.43;;
47259;SDS011;32999;52.412;4.890;2022-10-14T19:08:30;18.77;;;10.32;;
47259;SDS011;32999;52.412;4.890;2022-10-14T19:13:33;18.30;;;10.95;;
47259;SDS011;32999;52.412;4.890;2022-10-14T19:18:35;15.95;;;11.27;;
47259;SDS011;32999;52.412;4.890;2022-10-14T19:23:39;18.90;;;12.02;;
47259;SDS011;32999;52.412;4.890;2022-10-14T19:28:42;24.17;;;12.43;;
47259;SDS011;32999;52.412;4.890;2022-10-14T19:33:44;20.85;;;13.38;;
47259;SDS011;32999;52.412;4.890;2022-10-14T19:38:48;25.02;;;14.40;;
47259;SDS011;32999;52.412;4.890;2022-10-14T19:43:54;21.80;;;14.75;;
47259;SDS011;32999;52.412;4.890;2022-10-14T19:48:57;21.73;;;15.55;;
47259;SDS011;32999;52.412;4.890;2022-10-14T19:54:02;41.72;;;28.52;;
47259;SDS011;32999;52.412;4.890;2022-10-14T19:59:04;25.27;;;17.30;;
47259;SDS011;32999;52.412;4.890;2022-10-14T20:04:06;33.72;;;20.10;;
47259;SDS011;32999;52.412;4.890;2022-10-14T20:09:10;32.78;;;21.00;;
47259;SDS011;32999;52.412;4.890;2022-10-14T20:14:13;35.33;;;21.58;;
47259;SDS011;32999;52.412;4.890;2022-10-14T20:19:17;32.53;;;21.77;;
47259;SDS011;32999;52.412;4.890;2022-10-14T20:24:20;34.22;;;23.42;;
47259;SDS011;32999;52.412;4.890;2022-10-14T20:29:22;37.63;;;23.13;;
47259;SDS011;32999;52.412;4.890;2022-10-14T20:34:24;30.77;;;21.98;;
47259;SDS011;32999;52.412;4.890;2022-10-14T20:39:27;32.67;;;23.35;;
47259;SDS011;32999;52.412;4.890;2022-10-14T20:44:28;36.08;;;22.52;;
47259;SDS011;32999;52.412;4.890;2022-10-14T20:49:30;32.95;;;23.17;;
47259;SDS011;32999;52.412;4.890;2022-10-14T20:54:33;38.95;;;23.30;;
47259;SDS011;32999;52.412;4.890;2022-10-14T20:59:35;31.13;;;21.83;;
47259;SDS011;32999;52.412;4.890;2022-10-14T21:04:39;40.70;;;23.80;;
47259;SDS011;32999;52.412;4.890;2022-10-14T21:09:42;38.67;;;21.48;;
47259;SDS011;32999;52.412;4.890;2022-10-14T21:14:43;41.38;;;22.52;;
47259;SDS011;32999;52.412;4.890;2022-10-14T21:19:46;32.33;;;21.55;;
47259;SDS011;32999;52.412;4.890;2022-10-14T21:24:50;35.40;;;20.95;;
47259;SDS011;32999;52.412;4.890;2022-10-14T21:29:51;38.28;;;20.98;;
47259;SDS011;32999;52.412;4.890;2022-10-14T21:34:53;36.70;;;21.77;;
47259;SDS011;32999;52.412;4.890;2022-10-14T21:39:56;41.83;;;22.95;;
47259;SDS011;32999;52.412;4.890;2022-10-14T21:44:57;37.67;;;22.15;;
47259;SDS011;32999;52.412;4.890;2022-10-14T21:49:59;32.25;;;21.30;;
47259;SDS011;32999;52.412;4.890;2022-10-14T21:55:02;39.10;;;22.23;;
47259;SDS011;32999;52.412;4.890;2022-10-14T22:00:04;37.90;;;20.77;;
47259;SDS011;32999;52.412;4.890;2022-10-14T22:05:08;38.08;;;22.75;;
47259;SDS011;32999;52.412;4.890;2022-10-14T22:10:11;32.85;;;21.83;;
47259;SDS011;32999;52.412;4.890;2022-10-14T22:15:27;36.90;;;21.17;;
47259;SDS011;32999;52.412;4.890;2022-10-14T22:20:29;33.63;;;20.92;;
47259;SDS011;32999;52.412;4.890;2022-10-14T22:25:33;32.03;;;20.38;;
47259;SDS011;32999;52.412;4.890;2022-10-14T22:30:35;34.83;;;19.97;;
47259;SDS011;32999;52.412;4.890;2022-10-14T22:35:36;32.20;;;19.00;;
47259;SDS011;32999;52.412;4.890;2022-10-14T22:40:39;31.08;;;19.73;;
47259;SDS011;32999;52.412;4.890;2022-10-14T22:45:41;30.58;;;18.40;;
47259;SDS011;32999;52.412;4.890;2022-10-14T22:50:43;32.88;;;17.98;;
47259;SDS011;32999;52.412;4.890;2022-10-14T22:55:50;31.40;;;17.77;;
47259;SDS011;32999;52.412;4.890;2022-10-14T23:00:53;36.97;;;20.30;;
47259;SDS011;32999;52.412;4.890;2022-10-14T23:06:05;33.78;;;17.98;;
47259;SDS011;32999;52.412;4.890;2022-10-14T23:11:11;35.17;;;20.08;;
47259;SDS011;32999;52.412;4.890;2022-10-14T23:16:15;31.90;;;19.33;;
47259;SDS011;32999;52.412;4.890;2022-10-14T23:21:18;33.50;;;20.30;;
47259;SDS011;32999;52.412;4.890;2022-10-14T23:26:23;35.67;;;20.45;;
47259;SDS011;32999;52.412;4.890;2022-10-14T23:31:27;32.05;;;20.40;;
47259;SDS011;32999;52.412;4.890;2022-10-14T23:36:30;32.17;;;18.95;;
47259;SDS011;32999;52.412;4.890;2022-10-14T23:41:33;31.00;;;19.95;;
47259;SDS011;32999;52.412;4.890;2022-10-14T23:46:35;34.17;;;20.75;;
47259;SDS011;32999;52.412;4.890;2022-10-14T23:51:37;35.35;;;21.20;;
47259;SDS011;32999;52.412;4.890;2022-10-14T23:56:40;28.27;;;20.15;;
